sensor_id;sensor_type;location;lat;lon;timestamp;temperature;humidity
51719;DHT22;37795;53.236;5.704;2023-02-01T00:00:01;6.30;72.00
51719;DHT22;37795;53.236;5.704;2023-02-01T00:02:27;6.30;72.20
51719;DHT22;37795;53.236;5.704;2023-02-01T00:04:52;6.30;72.40
51719;DHT22;37795;53.236;5.704;2023-02-01T00:07:18;6.30;71.40
51719;DHT22;37795;53.236;5.704;2023-02-01T00:09:44;6.30;72.00
51719;DHT22;37795;53.236;5.704;2023-02-01T00:12:09;6.30;72.40
51719;DHT22;37795;53.236;5.704;2023-02-01T00:14:35;6.30;72.10
51719;DHT22;37795;53.236;5.704;2023-02-01T00:17:06;6.30;72.40
51719;DHT22;37795;53.236;5.704;2023-02-01T00:19:33;6.30;72.20
51719;DHT22;37795;53.236;5.704;2023-02-01T00:21:59;6.20;72.40
51719;DHT22;37795;53.236;5.704;2023-02-01T00:24:25;6.30;72.20
51719;DHT22;37795;53.236;5.704;2023-02-01T00:26:51;6.30;72.10
51719;DHT22;37795;53.236;5.704;2023-02-01T00:29:19;6.30;72.60
51719;DHT22;37795;53.236;5.704;2023-02-01T00:31:45;6.30;72.70
51719;DHT22;37795;53.236;5.704;2023-02-01T00:34:15;6.40;72.90
51719;DHT22;37795;53.236;5.704;2023-02-01T00:36:42;6.30;72.20
51719;DHT22;37795;53.236;5.704;2023-02-01T00:39:08;6.30;72.70
51719;DHT22;37795;53.236;5.704;2023-02-01T00:41:34;6.40;72.80
51719;DHT22;37795;53.236;5.704;2023-02-01T00:44:00;6.30;73.00
51719;DHT22;37795;53.236;5.704;2023-02-01T00:46:27;6.30;73.70
51719;DHT22;37795;53.236;5.704;2023-02-01T00:48:53;6.30;72.70
51719;DHT22;37795;53.236;5.704;2023-02-01T00:51:21;6.40;73.80
51719;DHT22;37795;53.236;5.704;2023-02-01T00:53:47;6.30;73.10
51719;DHT22;37795;53.236;5.704;2023-02-01T00:56:13;6.30;73.50
51719;DHT22;37795;53.236;5.704;2023-02-01T00:58:39;6.40;73.30
51719;DHT22;37795;53.236;5.704;2023-02-01T01:03:32;6.40;72.90
51719;DHT22;37795;53.236;5.704;2023-02-01T01:06:04;6.40;72.90
51719;DHT22;37795;53.236;5.704;2023-02-01T01:08:30;6.40;72.30
51719;DHT22;37795;53.236;5.704;2023-02-01T01:10:56;6.40;73.00
51719;DHT22;37795;53.236;5.704;2023-02-01T01:13:22;6.40;73.20
51719;DHT22;37795;53.236;5.704;2023-02-01T01:15:48;6.40;72.70
51719;DHT22;37795;53.236;5.704;2023-02-01T01:18:14;6.40;73.30
51719;DHT22;37795;53.236;5.704;2023-02-01T01:20:40;6.40;73.60
51719;DHT22;37795;53.236;5.704;2023-02-01T01:23:07;6.40;73.50
51719;DHT22;37795;53.236;5.704;2023-02-01T01:25:39;6.40;74.50
51719;DHT22;37795;53.236;5.704;2023-02-01T01:28:06;6.30;74.20
51719;DHT22;37795;53.236;5.704;2023-02-01T01:30:34;6.30;74.60
51719;DHT22;37795;53.236;5.704;2023-02-01T01:32:59;6.30;75.20
51719;DHT22;37795;53.236;5.704;2023-02-01T01:35:25;6.10;74.90
51719;DHT22;37795;53.236;5.704;2023-02-01T01:37:51;6.20;75.30
51719;DHT22;37795;53.236;5.704;2023-02-01T01:40:16;6.30;75.50
51719;DHT22;37795;53.236;5.704;2023-02-01T01:42:44;6.30;75.70
51719;DHT22;37795;53.236;5.704;2023-02-01T01:47:59;6.20;75.20
51719;DHT22;37795;53.236;5.704;2023-02-01T01:50:46;6.20;75.40
51719;DHT22;37795;53.236;5.704;2023-02-01T01:53:17;6.10;75.80
51719;DHT22;37795;53.236;5.704;2023-02-01T01:55:45;6.20;75.80
51719;DHT22;37795;53.236;5.704;2023-02-01T01:58:18;6.30;75.80
51719;DHT22;37795;53.236;5.704;2023-02-01T02:00:45;6.20;75.60
51719;DHT22;37795;53.236;5.704;2023-02-01T02:03:22;6.20;75.50
51719;DHT22;37795;53.236;5.704;2023-02-01T02:05:50;6.20;75.60
51719;DHT22;37795;53.236;5.704;2023-02-01T02:08:17;6.20;75.00
51719;DHT22;37795;53.236;5.704;2023-02-01T02:10:48;6.20;74.80
51719;DHT22;37795;53.236;5.704;2023-02-01T02:13:41;6.20;74.90
51719;DHT22;37795;53.236;5.704;2023-02-01T02:30:06;6.20;73.90
51719;DHT22;37795;53.236;5.704;2023-02-01T02:36:00;6.20;73.50
51719;DHT22;37795;53.236;5.704;2023-02-01T02:41:21;6.30;73.50
51719;DHT22;37795;53.236;5.704;2023-02-01T02:44:35;6.20;73.00
51719;DHT22;37795;53.236;5.704;2023-02-01T02:50:16;6.30;72.80
51719;DHT22;37795;53.236;5.704;2023-02-01T02:55:52;6.30;72.70
51719;DHT22;37795;53.236;5.704;2023-02-01T02:58:36;6.30;73.00
51719;DHT22;37795;53.236;5.704;2023-02-01T03:01:20;6.40;73.30
51719;DHT22;37795;53.236;5.704;2023-02-01T03:04:04;6.30;72.70
51719;DHT22;37795;53.236;5.704;2023-02-01T03:06:34;6.30;73.50
51719;DHT22;37795;53.236;5.704;2023-02-01T03:09:03;6.30;73.90
51719;DHT22;37795;53.236;5.704;2023-02-01T03:11:32;6.30;73.40
51719;DHT22;37795;53.236;5.704;2023-02-01T03:14:20;6.30;73.90
51719;DHT22;37795;53.236;5.704;2023-02-01T03:16:51;6.30;73.50
51719;DHT22;37795;53.236;5.704;2023-02-01T03:19:22;6.30;73.60
51719;DHT22;37795;53.236;5.704;2023-02-01T03:22:20;6.30;74.00
51719;DHT22;37795;53.236;5.704;2023-02-01T03:24:50;6.40;74.50
51719;DHT22;37795;53.236;5.704;2023-02-01T03:27:42;6.30;74.00
51719;DHT22;37795;53.236;5.704;2023-02-01T03:32:56;6.40;74.70
51719;DHT22;37795;53.236;5.704;2023-02-01T03:38:34;6.40;74.90
51719;DHT22;37795;53.236;5.704;2023-02-01T03:44:12;6.40;74.60
51719;DHT22;37795;53.236;5.704;2023-02-01T03:46:46;6.40;74.80
51719;DHT22;37795;53.236;5.704;2023-02-01T03:49:18;6.40;75.00
51719;DHT22;37795;53.236;5.704;2023-02-01T03:51:43;6.50;74.30
51719;DHT22;37795;53.236;5.704;2023-02-01T03:54:12;6.50;74.70
51719;DHT22;37795;53.236;5.704;2023-02-01T03:56:40;6.30;74.60
51719;DHT22;37795;53.236;5.704;2023-02-01T03:59:10;6.30;74.20
51719;DHT22;37795;53.236;5.704;2023-02-01T04:01:36;6.40;74.60
51719;DHT22;37795;53.236;5.704;2023-02-01T04:04:02;6.40;74.90
51719;DHT22;37795;53.236;5.704;2023-02-01T04:06:27;6.40;75.10
51719;DHT22;37795;53.236;5.704;2023-02-01T04:08:53;6.30;75.30
51719;DHT22;37795;53.236;5.704;2023-02-01T04:11:19;6.20;75.20
51719;DHT22;37795;53.236;5.704;2023-02-01T04:13:44;6.30;75.80
51719;DHT22;37795;53.236;5.704;2023-02-01T04:16:10;6.30;75.60
51719;DHT22;37795;53.236;5.704;2023-02-01T04:18:36;6.20;75.00
51719;DHT22;37795;53.236;5.704;2023-02-01T04:21:02;6.20;75.60
51719;DHT22;37795;53.236;5.704;2023-02-01T04:23:28;6.20;75.10
51719;DHT22;37795;53.236;5.704;2023-02-01T04:25:59;6.30;75.20
51719;DHT22;37795;53.236;5.704;2023-02-01T04:28:25;6.20;74.90
51719;DHT22;37795;53.236;5.704;2023-02-01T04:30:51;6.20;74.90
51719;DHT22;37795;53.236;5.704;2023-02-01T04:33:16;6.20;75.80
51719;DHT22;37795;53.236;5.704;2023-02-01T04:35:42;6.10;75.50
51719;DHT22;37795;53.236;5.704;2023-02-01T04:38:08;6.30;76.00
51719;DHT22;37795;53.236;5.704;2023-02-01T04:40:33;6.30;75.50
51719;DHT22;37795;53.236;5.704;2023-02-01T04:43:00;6.20;75.50
51719;DHT22;37795;53.236;5.704;2023-02-01T04:45:26;6.20;75.40
51719;DHT22;37795;53.236;5.704;2023-02-01T04:47:52;6.30;75.60
51719;DHT22;37795;53.236;5.704;2023-02-01T04:50:18;6.40;75.00
51719;DHT22;37795;53.236;5.704;2023-02-01T04:52:43;6.40;75.40
51719;DHT22;37795;53.236;5.704;2023-02-01T04:55:10;6.40;75.40
51719;DHT22;37795;53.236;5.704;2023-02-01T04:57:36;6.40;74.80
51719;DHT22;37795;53.236;5.704;2023-02-01T05:00:05;6.40;75.10
51719;DHT22;37795;53.236;5.704;2023-02-01T05:02:31;6.40;75.00
51719;DHT22;37795;53.236;5.704;2023-02-01T05:04:57;6.40;75.30
51719;DHT22;37795;53.236;5.704;2023-02-01T05:07:23;6.40;75.30
51719;DHT22;37795;53.236;5.704;2023-02-01T05:09:49;6.40;75.40
51719;DHT22;37795;53.236;5.704;2023-02-01T05:12:15;6.30;75.20
51719;DHT22;37795;53.236;5.704;2023-02-01T05:14:59;6.30;75.60
51719;DHT22;37795;53.236;5.704;2023-02-01T05:17:25;6.30;75.50
51719;DHT22;37795;53.236;5.704;2023-02-01T05:19:50;6.30;75.90
51719;DHT22;37795;53.236;5.704;2023-02-01T05:22:16;6.30;75.90
51719;DHT22;37795;53.236;5.704;2023-02-01T05:24:42;6.30;75.60
51719;DHT22;37795;53.236;5.704;2023-02-01T05:27:07;6.40;75.60
51719;DHT22;37795;53.236;5.704;2023-02-01T05:29:33;6.30;75.40
51719;DHT22;37795;53.236;5.704;2023-02-01T05:31:59;6.40;75.60
51719;DHT22;37795;53.236;5.704;2023-02-01T05:34:24;6.40;75.40
51719;DHT22;37795;53.236;5.704;2023-02-01T05:36:50;6.40;75.20
51719;DHT22;37795;53.236;5.704;2023-02-01T05:39:16;6.40;75.80
51719;DHT22;37795;53.236;5.704;2023-02-01T05:41:42;6.30;75.10
51719;DHT22;37795;53.236;5.704;2023-02-01T05:44:07;6.40;75.30
51719;DHT22;37795;53.236;5.704;2023-02-01T05:46:34;6.40;75.80
51719;DHT22;37795;53.236;5.704;2023-02-01T05:49:00;6.30;75.90
51719;DHT22;37795;53.236;5.704;2023-02-01T05:51:26;6.30;76.00
51719;DHT22;37795;53.236;5.704;2023-02-01T05:53:52;6.30;76.10
51719;DHT22;37795;53.236;5.704;2023-02-01T05:56:17;6.30;75.60
51719;DHT22;37795;53.236;5.704;2023-02-01T05:58:43;6.30;75.80
51719;DHT22;37795;53.236;5.704;2023-02-01T06:01:09;6.30;76.20
51719;DHT22;37795;53.236;5.704;2023-02-01T06:03:34;6.30;75.80
51719;DHT22;37795;53.236;5.704;2023-02-01T06:06:00;6.40;76.30
51719;DHT22;37795;53.236;5.704;2023-02-01T06:08:27;6.30;75.90
51719;DHT22;37795;53.236;5.704;2023-02-01T06:11:00;6.30;75.90
51719;DHT22;37795;53.236;5.704;2023-02-01T06:13:26;6.20;76.10
51719;DHT22;37795;53.236;5.704;2023-02-01T06:15:52;6.30;76.30
51719;DHT22;37795;53.236;5.704;2023-02-01T06:18:18;6.30;76.50
51719;DHT22;37795;53.236;5.704;2023-02-01T06:20:44;6.30;76.60
51719;DHT22;37795;53.236;5.704;2023-02-01T06:23:10;6.40;76.40
51719;DHT22;37795;53.236;5.704;2023-02-01T06:25:35;6.30;76.40
51719;DHT22;37795;53.236;5.704;2023-02-01T06:28:01;6.40;76.50
51719;DHT22;37795;53.236;5.704;2023-02-01T06:30:27;6.40;76.10
51719;DHT22;37795;53.236;5.704;2023-02-01T06:32:53;6.40;76.00
51719;DHT22;37795;53.236;5.704;2023-02-01T06:35:21;6.40;76.00
51719;DHT22;37795;53.236;5.704;2023-02-01T06:37:47;6.40;76.40
51719;DHT22;37795;53.236;5.704;2023-02-01T06:40:13;6.40;76.10
51719;DHT22;37795;53.236;5.704;2023-02-01T06:42:38;6.30;76.30
51719;DHT22;37795;53.236;5.704;2023-02-01T06:45:04;6.20;76.90
51719;DHT22;37795;53.236;5.704;2023-02-01T06:47:32;6.20;76.70
51719;DHT22;37795;53.236;5.704;2023-02-01T06:49:57;6.20;76.90
51719;DHT22;37795;53.236;5.704;2023-02-01T06:58:03;6.70;75.80
51719;DHT22;37795;53.236;5.704;2023-02-01T07:00:29;6.20;77.00
51719;DHT22;37795;53.236;5.704;2023-02-01T07:02:56;6.10;77.30
51719;DHT22;37795;53.236;5.704;2023-02-01T07:05:22;6.20;77.50
51719;DHT22;37795;53.236;5.704;2023-02-01T07:07:48;6.10;77.60
51719;DHT22;37795;53.236;5.704;2023-02-01T07:10:14;6.10;77.60
51719;DHT22;37795;53.236;5.704;2023-02-01T07:12:39;6.10;77.50
51719;DHT22;37795;53.236;5.704;2023-02-01T07:15:06;6.10;77.50
51719;DHT22;37795;53.236;5.704;2023-02-01T07:17:32;6.10;77.20
51719;DHT22;37795;53.236;5.704;2023-02-01T07:19:58;6.10;77.20
51719;DHT22;37795;53.236;5.704;2023-02-01T07:22:27;6.10;77.50
51719;DHT22;37795;53.236;5.704;2023-02-01T07:24:53;6.10;77.30
51719;DHT22;37795;53.236;5.704;2023-02-01T07:27:18;6.20;76.70
51719;DHT22;37795;53.236;5.704;2023-02-01T07:29:45;6.20;76.60
51719;DHT22;37795;53.236;5.704;2023-02-01T07:32:11;6.10;76.20
51719;DHT22;37795;53.236;5.704;2023-02-01T07:34:36;6.10;76.40
51719;DHT22;37795;53.236;5.704;2023-02-01T07:37:02;6.10;76.40
51719;DHT22;37795;53.236;5.704;2023-02-01T07:39:28;6.20;77.20
51719;DHT22;37795;53.236;5.704;2023-02-01T07:41:54;6.20;77.50
51719;DHT22;37795;53.236;5.704;2023-02-01T07:44:20;6.20;77.80
51719;DHT22;37795;53.236;5.704;2023-02-01T07:46:49;6.20;77.90
51719;DHT22;37795;53.236;5.704;2023-02-01T07:49:15;6.10;77.60
51719;DHT22;37795;53.236;5.704;2023-02-01T07:51:40;6.10;78.30
51719;DHT22;37795;53.236;5.704;2023-02-01T07:54:06;6.10;78.20
51719;DHT22;37795;53.236;5.704;2023-02-01T07:56:32;6.20;77.90
51719;DHT22;37795;53.236;5.704;2023-02-01T07:58:57;6.20;77.60
51719;DHT22;37795;53.236;5.704;2023-02-01T08:01:27;6.20;77.60
51719;DHT22;37795;53.236;5.704;2023-02-01T08:03:55;6.00;78.00
51719;DHT22;37795;53.236;5.704;2023-02-01T08:06:22;6.10;77.70
51719;DHT22;37795;53.236;5.704;2023-02-01T08:08:48;6.10;77.70
51719;DHT22;37795;53.236;5.704;2023-02-01T08:11:15;6.20;77.90
51719;DHT22;37795;53.236;5.704;2023-02-01T08:13:41;6.10;77.60
51719;DHT22;37795;53.236;5.704;2023-02-01T08:16:09;6.10;77.40
51719;DHT22;37795;53.236;5.704;2023-02-01T08:18:37;6.10;77.50
51719;DHT22;37795;53.236;5.704;2023-02-01T08:21:04;6.10;77.80
51719;DHT22;37795;53.236;5.704;2023-02-01T08:23:29;6.20;77.50
51719;DHT22;37795;53.236;5.704;2023-02-01T08:26:21;6.20;77.20
51719;DHT22;37795;53.236;5.704;2023-02-01T08:28:50;6.20;77.00
51719;DHT22;37795;53.236;5.704;2023-02-01T08:31:18;6.20;77.20
51719;DHT22;37795;53.236;5.704;2023-02-01T08:33:49;6.10;76.70
51719;DHT22;37795;53.236;5.704;2023-02-01T08:36:15;6.20;76.40
51719;DHT22;37795;53.236;5.704;2023-02-01T08:38:41;6.30;76.30
51719;DHT22;37795;53.236;5.704;2023-02-01T08:41:09;6.30;75.90
51719;DHT22;37795;53.236;5.704;2023-02-01T08:43:35;6.20;75.50
51719;DHT22;37795;53.236;5.704;2023-02-01T08:46:02;6.20;75.80
51719;DHT22;37795;53.236;5.704;2023-02-01T08:48:28;6.20;76.00
51719;DHT22;37795;53.236;5.704;2023-02-01T08:50:54;6.20;76.20
51719;DHT22;37795;53.236;5.704;2023-02-01T08:53:20;6.20;76.20
51719;DHT22;37795;53.236;5.704;2023-02-01T08:55:46;6.20;76.20
51719;DHT22;37795;53.236;5.704;2023-02-01T08:58:12;6.20;76.10
51719;DHT22;37795;53.236;5.704;2023-02-01T09:00:40;6.30;76.20
51719;DHT22;37795;53.236;5.704;2023-02-01T09:03:09;6.30;75.80
51719;DHT22;37795;53.236;5.704;2023-02-01T09:05:35;6.30;76.10
51719;DHT22;37795;53.236;5.704;2023-02-01T09:08:00;6.30;75.80
51719;DHT22;37795;53.236;5.704;2023-02-01T09:10:26;6.30;76.10
51719;DHT22;37795;53.236;5.704;2023-02-01T09:12:52;6.30;75.70
51719;DHT22;37795;53.236;5.704;2023-02-01T09:15:17;6.30;75.80
51719;DHT22;37795;53.236;5.704;2023-02-01T09:17:43;6.40;76.00
51719;DHT22;37795;53.236;5.704;2023-02-01T09:20:09;6.30;76.10
51719;DHT22;37795;53.236;5.704;2023-02-01T09:22:35;6.30;75.70
51719;DHT22;37795;53.236;5.704;2023-02-01T09:25:01;6.40;75.80
51719;DHT22;37795;53.236;5.704;2023-02-01T09:27:26;6.40;75.90
51719;DHT22;37795;53.236;5.704;2023-02-01T09:29:52;6.30;75.50
51719;DHT22;37795;53.236;5.704;2023-02-01T09:32:20;6.40;75.80
51719;DHT22;37795;53.236;5.704;2023-02-01T09:34:45;6.30;76.40
51719;DHT22;37795;53.236;5.704;2023-02-01T09:37:11;6.20;76.80
51719;DHT22;37795;53.236;5.704;2023-02-01T09:39:37;6.20;77.10
51719;DHT22;37795;53.236;5.704;2023-02-01T09:47:24;6.30;76.50
51719;DHT22;37795;53.236;5.704;2023-02-01T09:52:27;6.30;76.20
51719;DHT22;37795;53.236;5.704;2023-02-01T09:55:00;6.30;76.20
51719;DHT22;37795;53.236;5.704;2023-02-01T09:57:58;6.40;76.00
51719;DHT22;37795;53.236;5.704;2023-02-01T10:00:30;6.40;75.80
51719;DHT22;37795;53.236;5.704;2023-02-01T10:02:59;6.50;75.20
51719;DHT22;37795;53.236;5.704;2023-02-01T10:05:48;6.60;75.10
51719;DHT22;37795;53.236;5.704;2023-02-01T10:11:04;6.70;74.80
51719;DHT22;37795;53.236;5.704;2023-02-01T10:19:01;6.80;74.70
51719;DHT22;37795;53.236;5.704;2023-02-01T10:21:37;6.90;74.40
51719;DHT22;37795;53.236;5.704;2023-02-01T10:24:30;6.90;74.10
51719;DHT22;37795;53.236;5.704;2023-02-01T10:27:08;6.90;74.20
51719;DHT22;37795;53.236;5.704;2023-02-01T10:29:39;7.00;74.20
51719;DHT22;37795;53.236;5.704;2023-02-01T10:32:32;7.00;74.30
51719;DHT22;37795;53.236;5.704;2023-02-01T10:35:04;6.90;74.40
51719;DHT22;37795;53.236;5.704;2023-02-01T10:37:35;6.80;74.40
51719;DHT22;37795;53.236;5.704;2023-02-01T10:40:30;6.80;75.20
51719;DHT22;37795;53.236;5.704;2023-02-01T10:42:59;6.80;75.10
51719;DHT22;37795;53.236;5.704;2023-02-01T10:45:27;6.90;75.50
51719;DHT22;37795;53.236;5.704;2023-02-01T10:47:57;6.90;75.10
51719;DHT22;37795;53.236;5.704;2023-02-01T10:58:03;7.40;74.60
51719;DHT22;37795;53.236;5.704;2023-02-01T11:00:52;7.00;74.90
51719;DHT22;37795;53.236;5.704;2023-02-01T11:05:57;7.00;75.00
51719;DHT22;37795;53.236;5.704;2023-02-01T11:08:24;7.00;75.20
51719;DHT22;37795;53.236;5.704;2023-02-01T11:11:01;7.00;75.50
51719;DHT22;37795;53.236;5.704;2023-02-01T11:13:32;7.00;75.40
51719;DHT22;37795;53.236;5.704;2023-02-01T11:16:02;7.10;75.70
51719;DHT22;37795;53.236;5.704;2023-02-01T11:18:31;7.00;75.60
51719;DHT22;37795;53.236;5.704;2023-02-01T11:20:57;7.00;76.10
51719;DHT22;37795;53.236;5.704;2023-02-01T11:23:26;7.00;75.90
51719;DHT22;37795;53.236;5.704;2023-02-01T11:26:01;7.00;76.00
51719;DHT22;37795;53.236;5.704;2023-02-01T11:28:31;7.10;75.70
51719;DHT22;37795;53.236;5.704;2023-02-01T11:31:18;7.10;75.30
51719;DHT22;37795;53.236;5.704;2023-02-01T11:33:51;7.20;75.00
51719;DHT22;37795;53.236;5.704;2023-02-01T11:36:25;7.20;75.10
51719;DHT22;37795;53.236;5.704;2023-02-01T11:39:07;7.30;75.30
51719;DHT22;37795;53.236;5.704;2023-02-01T11:41:34;7.20;75.20
51719;DHT22;37795;53.236;5.704;2023-02-01T11:44:22;7.20;75.40
51719;DHT22;37795;53.236;5.704;2023-02-01T11:46:48;7.30;75.50
51719;DHT22;37795;53.236;5.704;2023-02-01T11:49:25;7.30;75.30
51719;DHT22;37795;53.236;5.704;2023-02-01T11:52:35;7.40;75.40
51719;DHT22;37795;53.236;5.704;2023-02-01T11:57:34;7.30;75.30
51719;DHT22;37795;53.236;5.704;2023-02-01T12:06:11;7.40;76.20
51719;DHT22;37795;53.236;5.704;2023-02-01T12:14:55;7.40;76.50
51719;DHT22;37795;53.236;5.704;2023-02-01T12:43:59;7.40;77.20
51719;DHT22;37795;53.236;5.704;2023-02-01T12:46:41;7.40;77.10
51719;DHT22;37795;53.236;5.704;2023-02-01T12:51:48;7.50;77.50
51719;DHT22;37795;53.236;5.704;2023-02-01T12:54:38;7.50;77.40
51719;DHT22;37795;53.236;5.704;2023-02-01T12:57:14;7.50;77.40
51719;DHT22;37795;53.236;5.704;2023-02-01T13:02:22;7.50;77.70
51719;DHT22;37795;53.236;5.704;2023-02-01T13:07:29;7.40;77.70
51719;DHT22;37795;53.236;5.704;2023-02-01T13:10:20;7.40;78.30
51719;DHT22;37795;53.236;5.704;2023-02-01T13:12:59;7.40;77.90
51719;DHT22;37795;53.236;5.704;2023-02-01T13:15:30;7.50;78.10
51719;DHT22;37795;53.236;5.704;2023-02-01T13:18:00;7.50;78.10
51719;DHT22;37795;53.236;5.704;2023-02-01T13:23:28;7.50;78.40
51719;DHT22;37795;53.236;5.704;2023-02-01T13:25:55;7.50;78.30
51719;DHT22;37795;53.236;5.704;2023-02-01T13:39:54;7.90;76.80
51719;DHT22;37795;53.236;5.704;2023-02-01T13:42:44;7.80;77.20
51719;DHT22;37795;53.236;5.704;2023-02-01T13:45:23;8.30;75.20
51719;DHT22;37795;53.236;5.704;2023-02-01T13:47:52;8.00;76.20
51719;DHT22;37795;53.236;5.704;2023-02-01T13:50:36;7.80;76.80
51719;DHT22;37795;53.236;5.704;2023-02-01T13:55:41;7.60;77.30
51719;DHT22;37795;53.236;5.704;2023-02-01T13:58:21;7.70;77.30
51719;DHT22;37795;53.236;5.704;2023-02-01T14:00:49;7.70;77.50
51719;DHT22;37795;53.236;5.704;2023-02-01T14:03:46;7.70;77.60
51719;DHT22;37795;53.236;5.704;2023-02-01T14:08:45;7.60;77.80
51719;DHT22;37795;53.236;5.704;2023-02-01T14:11:34;7.70;77.80
51719;DHT22;37795;53.236;5.704;2023-02-01T14:19:26;8.30;75.10
51719;DHT22;37795;53.236;5.704;2023-02-01T14:21:58;8.20;75.90
51719;DHT22;37795;53.236;5.704;2023-02-01T14:24:36;8.00;76.50
51719;DHT22;37795;53.236;5.704;2023-02-01T14:29:39;8.30;75.50
51719;DHT22;37795;53.236;5.704;2023-02-01T14:32:20;9.00;73.80
51719;DHT22;37795;53.236;5.704;2023-02-01T14:44:48;9.90;68.80
51719;DHT22;37795;53.236;5.704;2023-02-01T14:52:36;9.00;73.20
51719;DHT22;37795;53.236;5.704;2023-02-01T14:55:16;8.90;72.90
51719;DHT22;37795;53.236;5.704;2023-02-01T14:57:46;9.30;71.90
51719;DHT22;37795;53.236;5.704;2023-02-01T15:00:21;8.40;74.10
51719;DHT22;37795;53.236;5.704;2023-02-01T15:02:49;8.90;72.50
51719;DHT22;37795;53.236;5.704;2023-02-01T15:05:31;9.00;73.20
51719;DHT22;37795;53.236;5.704;2023-02-01T15:08:31;8.70;73.30
51719;DHT22;37795;53.236;5.704;2023-02-01T15:11:02;9.00;71.80
51719;DHT22;37795;53.236;5.704;2023-02-01T15:13:29;8.70;72.60
51719;DHT22;37795;53.236;5.704;2023-02-01T15:16:13;8.40;73.70
51719;DHT22;37795;53.236;5.704;2023-02-01T15:18:39;8.20;74.60
51719;DHT22;37795;53.236;5.704;2023-02-01T15:21:06;8.20;74.70
51719;DHT22;37795;53.236;5.704;2023-02-01T15:23:32;8.30;74.20
51719;DHT22;37795;53.236;5.704;2023-02-01T15:25:59;8.40;73.80
51719;DHT22;37795;53.236;5.704;2023-02-01T15:28:26;8.30;73.60
51719;DHT22;37795;53.236;5.704;2023-02-01T15:30:57;8.10;74.20
51719;DHT22;37795;53.236;5.704;2023-02-01T15:33:24;8.00;75.00
51719;DHT22;37795;53.236;5.704;2023-02-01T15:36:08;7.90;75.20
51719;DHT22;37795;53.236;5.704;2023-02-01T15:38:37;7.70;75.30
51719;DHT22;37795;53.236;5.704;2023-02-01T15:41:04;7.60;75.80
51719;DHT22;37795;53.236;5.704;2023-02-01T15:43:43;7.60;76.10
51719;DHT22;37795;53.236;5.704;2023-02-01T15:46:15;7.50;76.10
51719;DHT22;37795;53.236;5.704;2023-02-01T15:48:51;7.50;76.30
51719;DHT22;37795;53.236;5.704;2023-02-01T15:51:29;7.60;76.50
51719;DHT22;37795;53.236;5.704;2023-02-01T15:54:07;7.50;76.00
51719;DHT22;37795;53.236;5.704;2023-02-01T15:56:39;7.50;76.80
51719;DHT22;37795;53.236;5.704;2023-02-01T15:59:15;7.50;76.70
51719;DHT22;37795;53.236;5.704;2023-02-01T16:01:41;7.50;77.20
51719;DHT22;37795;53.236;5.704;2023-02-01T16:04:22;7.30;76.40
51719;DHT22;37795;53.236;5.704;2023-02-01T16:06:53;7.40;76.40
51719;DHT22;37795;53.236;5.704;2023-02-01T16:09:24;7.50;76.70
51719;DHT22;37795;53.236;5.704;2023-02-01T16:12:00;7.40;76.60
51719;DHT22;37795;53.236;5.704;2023-02-01T16:14:27;7.20;77.20
51719;DHT22;37795;53.236;5.704;2023-02-01T16:16:55;7.20;78.00
51719;DHT22;37795;53.236;5.704;2023-02-01T16:19:20;7.30;78.30
51719;DHT22;37795;53.236;5.704;2023-02-01T16:21:48;7.20;78.40
51719;DHT22;37795;53.236;5.704;2023-02-01T16:24:14;7.30;78.80
51719;DHT22;37795;53.236;5.704;2023-02-01T16:26:40;7.20;78.60
51719;DHT22;37795;53.236;5.704;2023-02-01T16:29:06;7.20;78.80
51719;DHT22;37795;53.236;5.704;2023-02-01T16:31:34;7.30;78.50
51719;DHT22;37795;53.236;5.704;2023-02-01T16:34:01;7.20;77.80
51719;DHT22;37795;53.236;5.704;2023-02-01T16:36:27;7.10;77.00
51719;DHT22;37795;53.236;5.704;2023-02-01T16:38:54;7.10;77.30
51719;DHT22;37795;53.236;5.704;2023-02-01T16:41:21;7.10;76.90
51719;DHT22;37795;53.236;5.704;2023-02-01T16:43:52;7.10;76.00
51719;DHT22;37795;53.236;5.704;2023-02-01T16:46:24;7.10;75.80
51719;DHT22;37795;53.236;5.704;2023-02-01T16:48:56;7.10;75.30
51719;DHT22;37795;53.236;5.704;2023-02-01T16:51:24;7.20;75.10
51719;DHT22;37795;53.236;5.704;2023-02-01T16:53:51;7.10;75.20
51719;DHT22;37795;53.236;5.704;2023-02-01T16:56:23;7.10;75.20
51719;DHT22;37795;53.236;5.704;2023-02-01T16:58:49;7.20;75.00
51719;DHT22;37795;53.236;5.704;2023-02-01T17:01:17;7.20;75.10
51719;DHT22;37795;53.236;5.704;2023-02-01T17:03:44;7.10;74.60
51719;DHT22;37795;53.236;5.704;2023-02-01T17:06:11;7.20;74.70
51719;DHT22;37795;53.236;5.704;2023-02-01T17:08:40;7.10;74.90
51719;DHT22;37795;53.236;5.704;2023-02-01T17:11:07;7.00;73.40
51719;DHT22;37795;53.236;5.704;2023-02-01T17:13:33;6.90;72.90
51719;DHT22;37795;53.236;5.704;2023-02-01T17:16:06;7.10;73.90
51719;DHT22;37795;53.236;5.704;2023-02-01T17:18:34;7.00;72.70
51719;DHT22;37795;53.236;5.704;2023-02-01T17:21:02;7.00;73.30
51719;DHT22;37795;53.236;5.704;2023-02-01T17:23:29;7.00;72.50
51719;DHT22;37795;53.236;5.704;2023-02-01T17:25:56;7.00;73.20
51719;DHT22;37795;53.236;5.704;2023-02-01T17:28:22;7.10;73.00
51719;DHT22;37795;53.236;5.704;2023-02-01T17:30:48;7.10;73.50
51719;DHT22;37795;53.236;5.704;2023-02-01T17:33:21;7.10;74.20
51719;DHT22;37795;53.236;5.704;2023-02-01T17:35:48;7.10;74.00
51719;DHT22;37795;53.236;5.704;2023-02-01T17:38:14;7.20;74.30
51719;DHT22;37795;53.236;5.704;2023-02-01T17:40:40;7.10;73.90
51719;DHT22;37795;53.236;5.704;2023-02-01T17:43:12;7.10;73.40
51719;DHT22;37795;53.236;5.704;2023-02-01T17:45:46;7.00;73.30
51719;DHT22;37795;53.236;5.704;2023-02-01T17:48:18;7.00;73.70
51719;DHT22;37795;53.236;5.704;2023-02-01T17:50:45;7.00;73.70
51719;DHT22;37795;53.236;5.704;2023-02-01T17:53:12;7.00;73.70
51719;DHT22;37795;53.236;5.704;2023-02-01T17:55:43;7.00;73.80
51719;DHT22;37795;53.236;5.704;2023-02-01T17:58:12;7.00;73.60
51719;DHT22;37795;53.236;5.704;2023-02-01T18:00:39;7.00;74.50
51719;DHT22;37795;53.236;5.704;2023-02-01T18:03:05;7.00;73.90
51719;DHT22;37795;53.236;5.704;2023-02-01T18:05:41;6.90;74.20
51719;DHT22;37795;53.236;5.704;2023-02-01T18:08:09;7.00;74.50
51719;DHT22;37795;53.236;5.704;2023-02-01T18:10:35;7.00;73.90
51719;DHT22;37795;53.236;5.704;2023-02-01T18:13:02;7.00;74.10
51719;DHT22;37795;53.236;5.704;2023-02-01T18:15:29;7.00;73.50
51719;DHT22;37795;53.236;5.704;2023-02-01T18:17:55;6.90;73.50
51719;DHT22;37795;53.236;5.704;2023-02-01T18:20:23;6.90;72.90
51719;DHT22;37795;53.236;5.704;2023-02-01T18:22:49;6.90;73.50
51719;DHT22;37795;53.236;5.704;2023-02-01T18:27:43;6.80;72.70
51719;DHT22;37795;53.236;5.704;2023-02-01T18:30:09;6.80;73.50
51719;DHT22;37795;53.236;5.704;2023-02-01T18:32:35;6.80;73.30
51719;DHT22;37795;53.236;5.704;2023-02-01T18:35:01;6.90;73.90
51719;DHT22;37795;53.236;5.704;2023-02-01T18:37:27;6.90;74.10
51719;DHT22;37795;53.236;5.704;2023-02-01T18:39:52;6.80;72.80
51719;DHT22;37795;53.236;5.704;2023-02-01T18:42:18;6.90;73.20
51719;DHT22;37795;53.236;5.704;2023-02-01T18:44:44;6.90;73.30
51719;DHT22;37795;53.236;5.704;2023-02-01T18:47:09;6.90;73.60